Time;durP1;ratioP1;P1;durP2;ratioP2;P2;SDS_P1;SDS_P2;PMS_P1;PMS_P2;Temp;Humidity;BMP_temperature;BMP_pressure;BME280_temperature;BME280_humidity;BME280_pressure;Samples;Min_cycle;Max_cycle;Signal;HPM_P1;HPM_P2
2023/03/21 00:01:35;;;;;;;47.42;20.35;;;8.90;99.90;;;;;;5064828;28;20047;-60
2023/03/21 00:04:02;;;;;;;43.38;18.35;;;8.90;99.90;;;;;;5064487;28;20133;-61
2023/03/21 00:06:27;;;;;;;46.38;19.23;;;8.90;99.90;;;;;;5079876;28;20510;-60
2023/03/21 00:08:53;;;;;;;52.63;20.50;;;8.90;99.90;;;;;;5072490;28;20044;-61
2023/03/21 00:11:20;;;;;;;42.78;17.90;;;8.90;99.90;;;;;;5083314;28;20040;-60
2023/03/21 00:13:46;;;;;;;46.95;19.63;;;8.90;99.90;;;;;;5074711;28;20261;-61
2023/03/21 00:16:14;;;;;;;44.45;18.67;;;8.90;99.90;;;;;;5062599;28;20141;-61
2023/03/21 00:18:45;;;;;;;45.70;18.40;;;8.90;99.90;;;;;;5064211;28;20032;-60
2023/03/21 00:21:17;;;;;;;45.50;19.38;;;8.90;99.90;;;;;;5066121;28;20044;-61
2023/03/21 00:23:45;;;;;;;44.67;18.15;;;8.90;99.90;;;;;;5066095;28;20078;-61
2023/03/21 00:26:11;;;;;;;44.22;18.15;;;8.90;99.90;;;;;;5049191;28;20127;-62
2023/03/21 00:28:41;;;;;;;43.72;17.98;;;8.90;99.90;;;;;;5066455;28;20881;-61
2023/03/21 00:31:08;;;;;;;37.35;17.13;;;8.90;99.90;;;;;;5065879;28;20048;-61
2023/03/21 00:33:34;;;;;;;47.67;17.23;;;8.90;99.90;;;;;;5083003;28;20044;-61
2023/03/21 00:36:01;;;;;;;43.95;17.33;;;9.00;99.90;;;;;;5066096;28;20387;-62
2023/03/21 00:38:27;;;;;;;42.08;16.60;;;8.90;99.90;;;;;;5082992;28;20089;-62
2023/03/21 00:40:53;;;;;;;41.35;17.05;;;8.90;99.90;;;;;;5066038;28;20040;-62
2023/03/21 00:43:22;;;;;;;38.47;15.93;;;8.90;99.90;;;;;;5066113;28;20256;-62
2023/03/21 00:46:00;;;;;;;53.13;18.52;;;9.00;99.90;;;;;;5066108;28;20052;-62
2023/03/21 00:48:26;;;;;;;55.70;19.00;;;9.00;99.90;;;;;;5051070;28;20076;-61
2023/03/21 00:50:54;;;;;;;63.92;21.55;;;9.00;99.90;;;;;;5065759;28;20411;-61
2023/03/21 00:53:20;;;;;;;76.95;21.42;;;9.00;99.90;;;;;;5066902;28;20032;-62
2023/03/21 00:55:46;;;;;;;76.55;24.08;;;9.00;99.90;;;;;;5066468;28;20177;-62
2023/03/21 00:58:12;;;;;;;89.80;25.48;;;9.00;99.90;;;;;;5067408;28;20040;-61
2023/03/21 01:00:38;;;;;;;103.63;26.42;;;9.00;99.90;;;;;;5064214;28;20032;-61
2023/03/21 01:03:07;;;;;;;107.93;27.75;;;9.00;99.90;;;;;;5032620;28;20523;-61
2023/03/21 01:08:22;;;;;;;138.43;31.17;;;9.00;99.90;;;;;;5065620;28;20079;-62
2023/03/21 01:10:50;;;;;;;130.85;30.98;;;8.90;99.90;;;;;;5048671;28;20127;-62
2023/03/21 01:13:19;;;;;;;183.90;34.63;;;8.90;99.90;;;;;;5069827;28;20066;-61
2023/03/21 01:15:47;;;;;;;165.25;32.67;;;9.00;99.90;;;;;;5053576;28;20047;-62
2023/03/21 01:18:15;;;;;;;144.38;32.95;;;9.00;99.90;;;;;;5067207;28;20665;-60
2023/03/21 01:20:43;;;;;;;171.77;36.25;;;9.00;99.90;;;;;;5065271;28;20047;-61
2023/03/21 01:23:10;;;;;;;134.48;33.92;;;9.00;99.90;;;;;;5048613;28;20044;-60
2023/03/21 01:25:36;;;;;;;164.82;36.40;;;8.90;99.90;;;;;;5066412;28;20032;-61
2023/03/21 01:28:02;;;;;;;156.43;33.90;;;8.90;99.90;;;;;;5070826;28;20569;-61
2023/03/21 01:30:27;;;;;;;164.25;35.05;;;8.90;99.90;;;;;;5083696;28;20338;-61
2023/03/21 01:32:53;;;;;;;191.20;38.30;;;9.00;99.90;;;;;;5051369;28;20462;-61
2023/03/21 01:35:19;;;;;;;117.78;30.02;;;8.90;99.90;;;;;;5089836;28;20515;-60
2023/03/21 01:37:44;;;;;;;154.60;35.85;;;8.90;99.90;;;;;;5066757;28;20404;-61
2023/03/21 01:40:16;;;;;;;140.48;34.05;;;8.90;99.90;;;;;;5065899;28;20148;-61
2023/03/21 01:42:42;;;;;;;113.90;29.30;;;8.90;99.90;;;;;;5065013;28;20051;-60
2023/03/21 01:45:45;;;;;;;111.82;31.38;;;8.90;99.90;;;;;;5064757;28;20041;-61
2023/03/21 01:48:12;;;;;;;129.10;33.72;;;9.00;99.90;;;;;;5065407;28;20094;-61
2023/03/21 01:50:39;;;;;;;103.57;31.58;;;9.00;99.90;;;;;;5068532;28;20458;-61
2023/03/21 01:53:05;;;;;;;120.20;30.10;;;9.00;99.90;;;;;;5064412;28;20097;-61
2023/03/21 01:55:32;;;;;;;113.65;32.28;;;9.00;99.90;;;;;;5081281;28;20076;-61
2023/03/21 01:57:59;;;;;;;116.95;31.35;;;9.00;99.90;;;;;;5066273;28;20044;-61
2023/03/21 02:00:28;;;;;;;101.32;30.60;;;9.00;99.90;;;;;;5073394;28;20051;-61
2023/03/21 02:02:58;;;;;;;118.20;33.00;;;9.00;99.90;;;;;;5084621;28;20549;-61
2023/03/21 02:05:36;;;;;;;106.50;33.08;;;9.00;99.90;;;;;;5072843;28;20079;-61
2023/03/21 02:08:02;;;;;;;85.53;28.35;;;9.00;99.90;;;;;;5067378;28;20044;-62
2023/03/21 02:10:31;;;;;;;84.28;28.08;;;9.00;99.90;;;;;;5084301;28;20050;-61
2023/03/21 02:13:06;;;;;;;96.18;30.00;;;9.00;99.90;;;;;;5059177;28;20052;-61
2023/03/21 02:15:34;;;;;;;93.68;30.02;;;9.00;99.90;;;;;;5063744;28;20629;-61
2023/03/21 02:18:25;;;;;;;99.63;29.00;;;9.00;99.90;;;;;;5047672;28;20405;-61
2023/03/21 02:21:15;;;;;;;109.88;31.33;;;9.00;99.90;;;;;;5068544;28;20046;-61
2023/03/21 02:24:15;;;;;;;90.55;29.40;;;9.00;99.90;;;;;;5063985;28;20036;-61
2023/03/21 02:27:05;;;;;;;100.05;31.80;;;9.00;99.90;;;;;;5065624;28;20032;-61
2023/03/21 02:29:39;;;;;;;96.47;30.45;;;9.00;99.90;;;;;;5062023;28;20044;-63
2023/03/21 02:32:29;;;;;;;87.90;29.77;;;9.00;99.90;;;;;;5081274;28;20105;-61
2023/03/21 02:35:30;;;;;;;100.68;31.65;;;9.00;99.90;;;;;;5064289;28;20072;-62
2023/03/21 02:37:58;;;;;;;105.55;32.65;;;9.00;99.90;;;;;;5060928;28;20061;-61
2023/03/21 02:40:58;;;;;;;104.05;31.45;;;9.00;99.90;;;;;;5046829;28;20033;-62
2023/03/21 02:43:54;;;;;;;93.78;31.58;;;9.00;99.90;;;;;;5074150;28;20460;-61
2023/03/21 02:46:34;;;;;;;90.38;31.35;;;9.00;99.90;;;;;;5061218;28;20032;-61
2023/03/21 02:49:05;;;;;;;93.90;31.10;;;9.00;99.90;;;;;;5064009;28;20070;-61
2023/03/21 02:51:33;;;;;;;95.55;30.67;;;9.00;99.90;;;;;;5084043;28;20040;-61
2023/03/21 02:54:10;;;;;;;95.13;31.35;;;9.00;99.90;;;;;;5083661;28;20285;-61
2023/03/21 02:56:36;;;;;;;75.75;28.25;;;9.00;99.90;;;;;;5065683;28;20061;-61
2023/03/21 02:59:04;;;;;;;69.70;27.10;;;9.00;99.90;;;;;;5063662;28;20048;-61
2023/03/21 03:01:31;;;;;;;64.30;27.27;;;9.00;99.90;;;;;;5063736;28;20411;-61
2023/03/21 03:03:57;;;;;;;73.55;28.38;;;9.00;99.90;;;;;;5064725;28;20047;-61
2023/03/21 03:06:46;;;;;;;63.20;26.33;;;9.00;99.90;;;;;;5064075;28;20048;-62
2023/03/21 03:09:38;;;;;;;69.13;26.80;;;9.10;99.90;;;;;;5075685;28;20083;-61
2023/03/21 03:12:23;;;;;;;77.30;26.17;;;9.00;99.90;;;;;;5070262;28;20463;-61
2023/03/21 03:15:03;;;;;;;65.82;24.77;;;9.10;99.90;;;;;;5045403;28;20056;-61
2023/03/21 03:17:36;;;;;;;67.72;23.77;;;9.00;99.90;;;;;;5063807;28;20403;-61
2023/03/21 03:20:27;;;;;;;62.95;24.27;;;9.10;99.90;;;;;;5063636;28;20052;-61
2023/03/21 03:23:13;;;;;;;58.65;22.63;;;9.10;99.90;;;;;;5046654;28;20123;-60
2023/03/21 03:25:48;;;;;;;57.90;21.80;;;9.10;99.90;;;;;;5064663;28;20528;-62
2023/03/21 03:28:18;;;;;;;51.08;21.92;;;9.10;99.90;;;;;;5063789;28;20048;-61
2023/03/21 03:30:46;;;;;;;50.22;22.05;;;9.10;99.90;;;;;;5074185;28;20089;-61
2023/03/21 03:33:15;;;;;;;49.92;20.40;;;9.10;99.90;;;;;;5083112;28;20044;-61
2023/03/21 03:35:43;;;;;;;55.80;21.50;;;9.10;99.90;;;;;;5052689;28;20627;-61
2023/03/21 03:38:11;;;;;;;50.63;21.15;;;9.10;99.90;;;;;;5063308;28;20048;-61
2023/03/21 03:40:48;;;;;;;48.80;20.48;;;9.10;99.90;;;;;;5055703;28;20439;-62
2023/03/21 03:43:19;;;;;;;43.53;18.75;;;9.10;99.90;;;;;;5062992;28;20102;-62
2023/03/21 03:45:49;;;;;;;38.30;17.65;;;9.10;99.90;;;;;;5062956;28;20041;-61
2023/03/21 03:48:24;;;;;;;38.55;17.08;;;9.10;99.90;;;;;;5046783;28;20061;-61
2023/03/21 03:50:52;;;;;;;38.97;18.20;;;9.10;99.90;;;;;;5063348;28;20115;-61
2023/03/21 03:53:35;;;;;;;39.20;17.65;;;9.10;99.90;;;;;;5062809;28;20048;-61
2023/03/21 03:56:03;;;;;;;42.25;17.02;;;9.10;99.90;;;;;;5066910;28;20702;-61
2023/03/21 03:58:30;;;;;;;39.28;17.17;;;9.10;99.90;;;;;;5050247;28;20037;-62
2023/03/21 04:00:56;;;;;;;39.08;17.55;;;9.10;99.90;;;;;;5033273;28;20132;-60
2023/03/21 04:03:22;;;;;;;38.33;17.15;;;9.10;99.90;;;;;;5066871;28;20673;-61
2023/03/21 04:05:48;;;;;;;38.20;17.42;;;9.10;99.90;;;;;;5049875;28;20121;-61
2023/03/21 04:08:15;;;;;;;41.25;16.42;;;9.10;99.90;;;;;;5067062;28;20029;-62
2023/03/21 04:10:42;;;;;;;45.00;17.92;;;9.10;99.90;;;;;;5066009;28;20076;-62
2023/03/21 04:13:07;;;;;;;34.88;16.80;;;9.10;99.90;;;;;;5066279;28;20048;-62
2023/03/21 04:15:34;;;;;;;41.90;18.05;;;9.10;99.90;;;;;;5068898;28;20044;-63
2023/03/21 04:18:00;;;;;;;42.53;18.58;;;9.10;99.90;;;;;;5066606;28;20060;-61
2023/03/21 04:20:26;;;;;;;47.05;18.77;;;9.10;99.90;;;;;;5050265;28;20551;-63
2023/03/21 04:22:53;;;;;;;41.13;18.20;;;9.10;99.90;;;;;;5067666;28;20119;-62
2023/03/21 04:25:19;;;;;;;46.20;18.75;;;9.10;99.90;;;;;;5082862;28;20040;-62
2023/03/21 04:27:45;;;;;;;55.05;20.33;;;9.10;99.90;;;;;;5066705;28;20098;-62
2023/03/21 04:30:11;;;;;;;44.55;19.27;;;9.10;99.90;;;;;;5064564;28;20068;-62
2023/03/21 04:32:41;;;;;;;47.95;18.40;;;9.10;99.90;;;;;;5066002;28;20084;-63
2023/03/21 04:35:08;;;;;;;49.05;20.13;;;9.10;99.90;;;;;;5049720;28;20436;-62
2023/03/21 04:37:35;;;;;;;44.50;19.38;;;9.10;99.90;;;;;;5066210;28;20348;-63
2023/03/21 04:40:06;;;;;;;48.28;19.17;;;9.10;99.90;;;;;;5049129;28;20044;-61
2023/03/21 04:42:33;;;;;;;49.08;19.33;;;9.10;99.90;;;;;;5066784;28;20499;-62
2023/03/21 04:44:59;;;;;;;48.97;19.10;;;9.10;99.90;;;;;;5047784;28;20072;-61
2023/03/21 04:47:25;;;;;;;50.50;19.85;;;9.10;99.90;;;;;;5049338;28;20583;-62
2023/03/21 04:49:52;;;;;;;54.28;19.60;;;9.10;99.90;;;;;;5065774;28;20040;-62
2023/03/21 04:52:18;;;;;;;64.35;21.83;;;9.10;99.90;;;;;;5049204;28;20051;-61
2023/03/21 04:54:44;;;;;;;59.92;20.58;;;9.10;99.90;;;;;;5065085;28;20057;-61
2023/03/21 04:57:10;;;;;;;59.28;20.83;;;9.10;99.90;;;;;;5066156;28;20515;-62
2023/03/21 04:59:36;;;;;;;52.08;18.65;;;9.10;99.90;;;;;;5064433;28;20041;-62
2023/03/21 05:02:01;;;;;;;50.60;19.05;;;9.10;99.90;;;;;;5065936;28;20076;-61
2023/03/21 05:04:29;;;;;;;48.95;18.08;;;9.00;99.90;;;;;;5065360;28;20036;-62
2023/03/21 05:06:56;;;;;;;51.03;18.75;;;9.00;99.90;;;;;;5065597;28;20102;-62
2023/03/21 05:09:22;;;;;;;47.55;18.17;;;9.00;99.90;;;;;;5066460;28;20047;-62
2023/03/21 05:11:48;;;;;;;45.65;18.23;;;9.00;99.90;;;;;;5049099;28;20044;-62
2023/03/21 05:14:17;;;;;;;50.42;17.77;;;9.00;99.90;;;;;;5064027;28;20045;-62
2023/03/21 05:16:47;;;;;;;51.17;17.45;;;9.10;99.90;;;;;;5047011;28;20044;-62
2023/03/21 05:19:14;;;;;;;55.95;18.40;;;9.00;99.90;;;;;;5065174;28;20044;-62
2023/03/21 05:21:40;;;;;;;51.53;16.75;;;9.00;99.90;;;;;;5048667;28;20133;-61
2023/03/21 05:24:13;;;;;;;48.58;18.33;;;9.10;99.90;;;;;;5064974;28;20037;-62
2023/03/21 05:26:40;;;;;;;52.35;18.25;;;9.10;99.90;;;;;;5066733;28;20393;-62
2023/03/21 05:29:07;;;;;;;44.42;17.23;;;9.10;99.90;;;;;;5047866;28;20041;-62
2023/03/21 05:31:32;;;;;;;49.53;17.38;;;9.10;99.90;;;;;;5063875;28;20174;-62
2023/03/21 05:33:58;;;;;;;43.70;17.05;;;9.00;99.90;;;;;;5064939;28;20504;-62
2023/03/21 05:36:24;;;;;;;57.67;18.15;;;9.00;99.90;;;;;;5097633;28;20040;-61
2023/03/21 05:38:50;;;;;;;54.72;19.08;;;9.10;99.90;;;;;;5085253;28;20036;-62
2023/03/21 05:41:17;;;;;;;54.05;18.08;;;9.10;99.90;;;;;;5063716;28;20044;-62
2023/03/21 05:43:42;;;;;;;50.58;19.20;;;9.00;99.90;;;;;;5081599;28;20878;-62
2023/03/21 05:46:09;;;;;;;62.40;19.33;;;9.00;99.90;;;;;;5063624;28;20113;-63
2023/03/21 05:48:35;;;;;;;47.35;18.98;;;9.00;99.90;;;;;;5065219;28;20044;-62
2023/03/21 05:51:02;;;;;;;42.20;18.45;;;9.00;99.90;;;;;;5048408;28;20040;-62
2023/03/21 05:53:27;;;;;;;56.08;20.40;;;9.00;99.90;;;;;;5064675;28;20040;-62
2023/03/21 05:55:53;;;;;;;52.85;19.98;;;9.10;99.90;;;;;;5064410;28;20040;-61
2023/03/21 05:58:19;;;;;;;57.55;20.85;;;9.00;99.90;;;;;;5065282;28;20044;-62
2023/03/21 06:00:45;;;;;;;54.53;21.45;;;9.00;99.90;;;;;;5063121;28;20119;-62
2023/03/21 06:03:10;;;;;;;55.95;20.98;;;9.00;99.90;;;;;;5047780;28;20036;-61
2023/03/21 06:05:36;;;;;;;55.65;23.00;;;9.10;99.90;;;;;;5065957;28;20544;-61
2023/03/21 06:08:02;;;;;;;56.83;23.20;;;9.00;99.90;;;;;;5084060;28;20555;-61
2023/03/21 06:10:28;;;;;;;67.30;24.08;;;9.00;99.90;;;;;;5084346;28;20040;-62
2023/03/21 06:12:53;;;;;;;55.63;23.30;;;9.10;99.90;;;;;;5066022;28;20093;-60
2023/03/21 06:15:19;;;;;;;52.25;21.67;;;9.10;99.90;;;;;;5079676;28;20040;-61
2023/03/21 06:17:45;;;;;;;54.60;22.10;;;9.10;99.90;;;;;;5063812;28;20029;-60
2023/03/21 06:20:11;;;;;;;53.33;22.17;;;9.10;99.90;;;;;;5064366;28;20450;-61
2023/03/21 06:22:37;;;;;;;50.83;21.13;;;9.10;99.90;;;;;;5047893;28;20538;-61
2023/03/21 06:25:04;;;;;;;50.20;22.30;;;9.10;99.90;;;;;;5084867;28;20028;-59
2023/03/21 06:27:30;;;;;;;53.88;22.67;;;9.10;99.90;;;;;;5084702;28;20044;-62
2023/03/21 06:29:59;;;;;;;48.08;20.77;;;9.10;99.90;;;;;;5079565;28;20384;-60
2023/03/21 06:32:25;;;;;;;52.20;21.83;;;9.10;99.90;;;;;;5063997;28;20455;-62
2023/03/21 06:34:51;;;;;;;50.78;20.92;;;9.10;99.90;;;;;;5063996;28;20087;-61
2023/03/21 06:37:17;;;;;;;52.95;21.20;;;9.20;99.90;;;;;;5064311;28;20145;-62
2023/03/21 06:39:43;;;;;;;54.17;22.83;;;9.20;99.90;;;;;;5063738;28;20147;-61
2023/03/21 06:42:09;;;;;;;50.15;21.85;;;9.20;99.90;;;;;;5068187;28;20040;-60
2023/03/21 06:44:35;;;;;;;48.17;21.20;;;9.20;99.90;;;;;;5079363;28;20036;-61
2023/03/21 06:47:00;;;;;;;56.35;22.88;;;9.20;99.90;;;;;;5081886;28;20075;-62
2023/03/21 06:49:26;;;;;;;43.22;20.60;;;9.20;99.90;;;;;;5081471;28;20145;-61
2023/03/21 06:51:52;;;;;;;50.15;21.02;;;9.20;99.90;;;;;;5084378;28;20402;-61
2023/03/21 06:54:19;;;;;;;46.83;21.67;;;9.20;99.90;;;;;;5066018;28;20044;-62
2023/03/21 06:56:46;;;;;;;44.83;21.27;;;9.20;99.90;;;;;;5083465;28;20399;-61
2023/03/21 06:59:12;;;;;;;44.47;21.35;;;9.20;99.90;;;;;;5062726;28;20045;-62
2023/03/21 07:01:38;;;;;;;47.03;22.55;;;9.30;99.90;;;;;;5063394;28;20048;-63
2023/03/21 07:04:05;;;;;;;49.13;22.20;;;9.30;99.90;;;;;;5068770;28;20044;-63
2023/03/21 07:06:31;;;;;;;47.25;20.65;;;9.30;99.90;;;;;;5064758;28;20625;-62
2023/03/21 07:08:57;;;;;;;48.90;21.92;;;9.30;99.90;;;;;;5082588;28;20043;-63
2023/03/21 07:11:23;;;;;;;42.25;19.83;;;9.30;99.90;;;;;;5082447;28;20032;-63
2023/03/21 07:13:50;;;;;;;38.88;19.45;;;9.30;99.90;;;;;;5081671;28;20568;-63
2023/03/21 07:16:17;;;;;;;40.35;19.65;;;9.40;99.90;;;;;;5077943;28;20514;-63
2023/03/21 07:18:43;;;;;;;42.65;20.10;;;9.40;99.90;;;;;;5085032;28;20043;-63
2023/03/21 07:21:10;;;;;;;38.47;18.48;;;9.40;99.90;;;;;;5078838;28;20036;-63
2023/03/21 07:23:37;;;;;;;39.72;18.42;;;9.40;99.90;;;;;;5062715;28;20043;-63
2023/03/21 07:26:04;;;;;;;35.10;17.42;;;9.40;99.90;;;;;;5063011;28;20044;-63
2023/03/21 07:28:30;;;;;;;35.53;16.83;;;9.40;99.90;;;;;;5075223;28;20036;-63
2023/03/21 07:30:59;;;;;;;34.88;17.30;;;9.40;99.90;;;;;;5056571;28;20037;-63
2023/03/21 07:33:25;;;;;;;32.58;17.17;;;9.40;99.90;;;;;;5066861;28;20037;-63
2023/03/21 07:35:54;;;;;;;30.35;15.57;;;9.50;99.90;;;;;;5068505;28;20098;-64
2023/03/21 07:38:20;;;;;;;28.50;16.95;;;9.50;99.90;;;;;;5068737;28;20087;-63
2023/03/21 07:40:47;;;;;;;30.55;16.40;;;9.50;99.90;;;;;;5067073;28;20515;-63
2023/03/21 07:43:14;;;;;;;30.35;16.15;;;9.50;99.90;;;;;;5068535;28;20067;-62
2023/03/21 07:45:41;;;;;;;27.63;15.30;;;9.50;99.90;;;;;;5066623;28;20115;-63
2023/03/21 07:48:08;;;;;;;28.75;15.60;;;9.60;99.90;;;;;;5067250;28;20530;-63
2023/03/21 07:50:34;;;;;;;26.40;14.90;;;9.60;99.90;;;;;;5050158;28;20040;-62
2023/03/21 07:53:00;;;;;;;24.23;13.93;;;9.60;99.90;;;;;;5083783;28;20059;-62
2023/03/21 07:55:26;;;;;;;25.52;13.77;;;9.70;99.90;;;;;;5068176;28;20052;-62
2023/03/21 07:57:52;;;;;;;20.88;12.30;;;9.70;99.90;;;;;;5066848;28;20543;-62
2023/03/21 08:00:22;;;;;;;21.08;11.10;;;9.70;99.90;;;;;;5072397;28;20115;-60
2023/03/21 08:02:53;;;;;;;21.45;12.00;;;9.70;99.90;;;;;;5086950;28;20051;-62
2023/03/21 08:05:24;;;;;;;21.08;11.32;;;9.70;99.90;;;;;;5077362;28;20388;-61
2023/03/21 08:07:50;;;;;;;19.60;10.50;;;9.70;99.90;;;;;;5068865;28;20058;-62
2023/03/21 08:10:17;;;;;;;16.30;9.07;;;9.70;99.90;;;;;;5066894;28;20044;-62
2023/03/21 08:12:43;;;;;;;17.30;9.10;;;9.70;99.90;;;;;;5067839;28;20424;-62
2023/03/21 08:15:09;;;;;;;13.75;8.25;;;9.70;99.90;;;;;;5076567;28;20036;-62
2023/03/21 08:17:36;;;;;;;14.43;8.82;;;9.70;99.90;;;;;;5066456;28;20053;-61
2023/03/21 08:20:07;;;;;;;16.85;8.40;;;9.70;99.90;;;;;;5066690;28;20670;-63
2023/03/21 08:22:34;;;;;;;13.88;7.65;;;9.70;99.90;;;;;;5066383;28;20387;-62
2023/03/21 08:25:01;;;;;;;16.55;7.95;;;9.70;99.90;;;;;;5067460;28;20438;-62
2023/03/21 08:27:26;;;;;;;16.48;9.02;;;9.70;99.90;;;;;;5068162;28;20127;-62
2023/03/21 08:29:52;;;;;;;16.52;8.98;;;9.70;99.90;;;;;;5068093;28;20276;-63
2023/03/21 08:32:18;;;;;;;16.40;9.55;;;9.60;99.90;;;;;;5086109;28;20052;-63
2023/03/21 08:34:44;;;;;;;17.75;10.75;;;9.60;99.90;;;;;;5064802;28;20044;-63
2023/03/21 08:37:10;;;;;;;17.80;10.75;;;9.60;99.90;;;;;;5033058;28;20090;-62
2023/03/21 08:39:35;;;;;;;20.52;12.57;;;9.60;99.90;;;;;;5065622;28;20036;-63
2023/03/21 08:42:01;;;;;;;19.45;11.13;;;9.60;99.90;;;;;;5065120;28;20043;-62
2023/03/21 08:44:27;;;;;;;19.17;11.50;;;9.60;99.90;;;;;;5047612;28;20040;-62
2023/03/21 08:46:53;;;;;;;19.15;12.40;;;9.60;99.90;;;;;;5066211;28;20464;-62
2023/03/21 08:49:18;;;;;;;18.00;11.40;;;9.60;99.90;;;;;;5032752;28;20039;-62
2023/03/21 08:51:44;;;;;;;21.00;11.85;;;9.60;99.90;;;;;;5065684;28;20582;-61
2023/03/21 08:54:20;;;;;;;18.77;11.50;;;9.70;99.90;;;;;;5072192;28;20130;-62
2023/03/21 08:56:46;;;;;;;18.52;11.65;;;9.60;99.90;;;;;;5087251;28;20051;-63
2023/03/21 08:59:12;;;;;;;19.52;11.27;;;9.70;99.90;;;;;;5051186;28;20118;-63
2023/03/21 09:01:38;;;;;;;20.63;12.13;;;9.60;99.90;;;;;;5067659;28;20136;-60
2023/03/21 09:04:06;;;;;;;19.15;11.50;;;9.60;99.90;;;;;;5065364;28;20488;-63
2023/03/21 09:06:32;;;;;;;19.60;12.32;;;9.60;99.90;;;;;;5065939;28;20105;-62
2023/03/21 09:08:58;;;;;;;19.05;11.88;;;9.60;99.90;;;;;;5077163;28;20036;-62
2023/03/21 09:11:24;;;;;;;18.60;11.55;;;9.70;99.90;;;;;;5068909;28;20123;-63
2023/03/21 09:13:50;;;;;;;22.77;13.10;;;9.70;99.90;;;;;;5067811;28;20074;-61
2023/03/21 09:16:16;;;;;;;22.50;13.20;;;9.70;99.90;;;;;;5047286;28;20407;-62
2023/03/21 09:18:46;;;;;;;20.38;12.45;;;9.80;99.90;;;;;;5065533;28;20037;-62
2023/03/21 09:21:14;;;;;;;19.98;12.32;;;9.80;99.90;;;;;;5065302;28;20078;-62
2023/03/21 09:23:40;;;;;;;21.02;13.48;;;9.80;99.90;;;;;;5065298;28;20036;-62
2023/03/21 09:26:08;;;;;;;23.60;13.73;;;9.80;99.90;;;;;;5064850;28;20043;-63
2023/03/21 09:28:37;;;;;;;23.98;14.07;;;9.80;99.90;;;;;;5066481;28;20040;-62
2023/03/21 09:31:05;;;;;;;25.83;14.88;;;9.80;99.90;;;;;;5046480;28;20132;-63
2023/03/21 09:33:31;;;;;;;23.73;14.65;;;9.70;99.90;;;;;;5048252;28;20399;-63
2023/03/21 09:35:59;;;;;;;28.20;15.20;;;9.80;99.90;;;;;;5048464;28;20411;-63
2023/03/21 09:38:29;;;;;;;28.35;15.57;;;9.70;99.90;;;;;;5048430;28;20290;-63
2023/03/21 09:41:01;;;;;;;23.88;14.73;;;9.80;99.90;;;;;;5081439;28;20041;-62
2023/03/21 09:43:46;;;;;;;23.88;13.75;;;9.80;99.90;;;;;;5064928;28;20411;-63
2023/03/21 09:46:23;;;;;;;24.35;14.63;;;9.80;99.90;;;;;;5063343;28;20048;-64
2023/03/21 09:48:56;;;;;;;25.17;14.82;;;9.80;99.90;;;;;;5048259;28;20052;-62
2023/03/21 09:51:30;;;;;;;27.23;16.48;;;9.80;99.90;;;;;;5064689;28;20523;-62
2023/03/21 09:54:02;;;;;;;30.75;17.08;;;9.80;99.90;;;;;;5064410;28;20044;-63
2023/03/21 09:56:29;;;;;;;29.48;15.85;;;9.80;99.90;;;;;;5064397;28;20052;-63
2023/03/21 09:58:58;;;;;;;28.98;15.70;;;9.80;99.90;;;;;;5064634;28;20044;-61
2023/03/21 10:01:34;;;;;;;33.45;14.77;;;9.80;99.90;;;;;;5074309;28;20036;-62
2023/03/21 10:04:07;;;;;;;28.27;16.15;;;9.80;99.90;;;;;;5063837;28;20101;-63
2023/03/21 10:06:38;;;;;;;34.45;17.95;;;9.80;99.90;;;;;;5064203;28;20083;-62
2023/03/21 10:09:15;;;;;;;28.25;17.73;;;9.70;99.90;;;;;;5047374;28;20519;-61
2023/03/21 10:11:49;;;;;;;39.10;19.30;;;9.60;99.90;;;;;;5065727;28;20059;-63
2023/03/21 10:14:24;;;;;;;36.00;19.53;;;9.60;99.90;;;;;;5062672;28;20052;-61
2023/03/21 10:16:58;;;;;;;33.72;19.35;;;9.60;99.90;;;;;;5048023;28;20467;-62
2023/03/21 10:19:26;;;;;;;41.05;22.83;;;9.60;99.90;;;;;;5063972;28;20036;-62
2023/03/21 10:21:52;;;;;;;44.80;22.95;;;9.60;99.90;;;;;;5064078;28;20036;-63
2023/03/21 10:24:21;;;;;;;50.22;23.52;;;9.60;99.90;;;;;;5047040;28;20041;-62
2023/03/21 10:26:50;;;;;;;43.00;23.63;;;9.60;99.90;;;;;;5047397;28;20044;-62
2023/03/21 10:29:18;;;;;;;43.05;23.17;;;9.60;99.90;;;;;;5063952;28;20044;-62
2023/03/21 10:31:45;;;;;;;48.30;24.02;;;9.60;99.90;;;;;;5063093;28;20153;-62
2023/03/21 10:34:26;;;;;;;45.47;23.92;;;9.60;99.90;;;;;;5047396;28;20098;-62
2023/03/21 10:36:52;;;;;;;41.90;23.83;;;9.60;99.90;;;;;;5063734;28;20063;-63
2023/03/21 10:39:30;;;;;;;39.50;22.02;;;9.60;99.90;;;;;;5066958;28;20360;-62
2023/03/21 10:41:56;;;;;;;46.75;23.75;;;9.60;99.90;;;;;;5063918;28;20094;-63
2023/03/21 10:44:29;;;;;;;43.28;23.08;;;9.60;99.90;;;;;;5062480;28;20044;-63
2023/03/21 10:46:58;;;;;;;37.25;22.20;;;9.70;99.90;;;;;;5047553;28;20101;-64
2023/03/21 10:49:25;;;;;;;40.72;22.55;;;9.70;99.90;;;;;;5064977;28;20043;-63
2023/03/21 10:51:57;;;;;;;40.55;21.67;;;9.70;99.90;;;;;;5063420;28;20044;-64
2023/03/21 10:54:28;;;;;;;37.67;21.40;;;9.70;99.90;;;;;;5063051;28;20083;-63
2023/03/21 10:57:10;;;;;;;39.83;20.25;;;9.80;99.90;;;;;;5047089;28;20054;-65
2023/03/21 10:59:52;;;;;;;32.33;19.27;;;9.80;99.90;;;;;;5063337;28;20462;-63
2023/03/21 11:02:34;;;;;;;35.88;18.45;;;9.90;99.90;;;;;;5063225;28;20122;-62
2023/03/21 11:05:33;;;;;;;30.67;17.08;;;9.90;99.90;;;;;;5065147;28;20043;-63
2023/03/21 11:08:17;;;;;;;32.13;16.13;;;10.00;99.90;;;;;;5076239;28;20055;-63
2023/03/21 11:10:55;;;;;;;;;;;10.10;99.90;;;;;;5059544;28;20046;-62
2023/03/21 11:13:31;;;;;;;33.50;17.40;;;10.20;99.90;;;;;;5083597;28;20355;-63
2023/03/21 11:16:23;;;;;;;34.15;17.23;;;10.30;99.90;;;;;;5053427;28;20052;-63
2023/03/21 11:18:51;;;;;;;28.98;16.15;;;10.40;99.90;;;;;;5046364;28;20052;-65
2023/03/21 11:21:20;;;;;;;28.42;15.23;;;10.50;99.90;;;;;;5046781;28;20055;-63
2023/03/21 11:23:48;;;;;;;29.98;15.63;;;10.70;99.90;;;;;;5064460;28;20041;-67
2023/03/21 11:26:35;;;;;;;26.13;15.02;;;10.80;99.90;;;;;;5073334;28;20122;-63
2023/03/21 11:29:24;;;;;;;32.45;15.75;;;10.90;99.90;;;;;;5067178;28;20778;-65
2023/03/21 11:31:51;;;;;;;24.30;13.85;;;11.00;99.90;;;;;;5066045;28;20064;-64
2023/03/21 11:34:27;;;;;;;27.30;14.57;;;11.00;99.90;;;;;;5063119;28;20097;-64
2023/03/21 11:36:58;;;;;;;24.73;13.52;;;11.10;99.90;;;;;;5079742;28;20613;-62
2023/03/21 11:39:29;;;;;;;22.50;12.82;;;11.20;99.90;;;;;;5066292;28;20135;-64
2023/03/21 11:41:55;;;;;;;24.83;13.05;;;11.30;99.90;;;;;;5078702;28;20059;-63
2023/03/21 11:44:32;;;;;;;25.25;12.85;;;11.30;99.90;;;;;;5061717;28;20040;-63
2023/03/21 11:46:58;;;;;;;25.58;12.70;;;11.40;99.90;;;;;;5063069;28;20773;-64
2023/03/21 11:49:25;;;;;;;25.45;11.48;;;11.50;99.90;;;;;;5063042;28;20131;-65
2023/03/21 11:52:06;;;;;;;22.08;12.93;;;11.50;99.90;;;;;;5063025;28;20066;-62
2023/03/21 11:54:44;;;;;;;26.65;11.95;;;11.60;99.90;;;;;;5062540;28;20350;-64
2023/03/21 11:57:39;;;;;;;22.08;12.43;;;11.60;99.90;;;;;;5063166;28;20503;-61
2023/03/21 12:00:24;;;;;;;28.27;11.88;;;11.60;99.90;;;;;;5065193;28;20125;-62
2023/03/21 12:02:54;;;;;;;20.50;11.75;;;11.60;99.90;;;;;;5083160;28;20519;-65
2023/03/21 12:05:30;;;;;;;26.38;12.13;;;11.60;99.90;;;;;;5074395;28;20040;-65
2023/03/21 12:08:01;;;;;;;20.83;11.07;;;11.70;99.90;;;;;;5048361;28;20080;-64
2023/03/21 12:10:35;;;;;;;27.08;12.18;;;11.60;99.90;;;;;;5062316;28;20040;-62
2023/03/21 12:13:07;;;;;;;25.92;12.23;;;11.70;99.90;;;;;;5062529;28;20076;-63
2023/03/21 12:15:53;;;;;;;20.77;12.18;;;11.70;99.90;;;;;;5044795;28;20044;-65
2023/03/21 12:18:59;;;;;;;23.25;12.02;;;11.80;99.90;;;;;;5066631;28;20071;-63
2023/03/21 12:21:31;;;;;;;22.77;11.07;;;11.80;99.90;;;;;;5066590;28;20459;-62
2023/03/21 12:24:14;;;;;;;22.85;12.00;;;11.80;99.90;;;;;;5066410;28;20040;-62
2023/03/21 12:26:47;;;;;;;20.60;10.70;;;11.80;99.90;;;;;;5050027;28;20036;-63
2023/03/21 12:29:56;;;;;;;21.70;11.02;;;11.80;99.90;;;;;;5065148;28;20036;-63
2023/03/21 12:32:28;;;;;;;21.48;11.18;;;11.70;99.90;;;;;;5013838;28;20504;-63
2023/03/21 12:35:01;;;;;;;22.25;11.32;;;11.70;99.90;;;;;;5053989;28;20040;-63
2023/03/21 12:37:45;;;;;;;20.27;10.68;;;11.70;99.90;;;;;;5067721;28;20040;-62
2023/03/21 12:40:20;;;;;;;21.70;10.25;;;11.70;99.90;;;;;;5066085;28;20392;-64
2023/03/21 12:42:54;;;;;;;19.83;11.05;;;11.50;99.90;;;;;;5066156;28;20514;-63
2023/03/21 12:45:25;;;;;;;23.88;11.60;;;11.40;99.90;;;;;;5063742;28;20036;-62
2023/03/21 12:47:57;;;;;;;23.65;10.52;;;11.30;99.90;;;;;;5049695;28;20456;-62
2023/03/21 12:50:35;;;;;;;23.42;11.43;;;11.30;99.90;;;;;;5065890;28;20460;-63
2023/03/21 12:53:26;;;;;;;20.20;10.05;;;11.20;99.90;;;;;;5048913;28;20082;-62
2023/03/21 12:55:56;;;;;;;20.95;10.65;;;11.20;99.90;;;;;;5065223;28;20140;-63